createdAt,value
2018-06-25T00:02:06.717Z,102546.16
2018-06-25T00:04:36.248Z,102550.24
2018-06-25T00:07:06.049Z,102555.37
2018-06-25T00:09:35.737Z,102547.08
2018-06-25T00:12:05.980Z,102546.09
2018-06-25T00:14:35.577Z,102541.68
2018-06-25T00:17:05.438Z,102543.72
2018-06-25T00:19:35.146Z,102538.33
2018-06-25T00:22:04.725Z,102541.38
2018-06-25T00:24:34.226Z,102538.36
2018-06-25T00:27:03.780Z,102534.20
2018-06-25T00:29:33.307Z,102531.30
2018-06-25T00:32:02.828Z,102527.15
2018-06-25T00:34:33.351Z,102525.63
2018-06-25T00:37:02.864Z,102528.20
2018-06-25T00:39:32.372Z,102526.89
2018-06-25T00:42:01.964Z,102527.34
2018-06-25T00:44:31.492Z,102526.40
2018-06-25T00:47:01.009Z,102523.08
2018-06-25T00:49:30.527Z,102529.33
2018-06-25T00:52:00.048Z,102521.83
2018-06-25T00:54:29.570Z,102523.08
2018-06-25T00:56:59.057Z,102518.55
2018-06-25T00:59:45.397Z,102522.08
2018-06-25T01:02:14.933Z,102529.09
2018-06-25T01:04:44.433Z,102523.50
2018-06-25T01:07:13.950Z,102520.79
2018-06-25T01:09:43.596Z,102524.49
2018-06-25T01:12:13.447Z,102527.44
2018-06-25T01:14:43.392Z,102522.30
2018-06-25T01:17:12.978Z,102518.23
2018-06-25T01:19:42.438Z,102518.40
2018-06-25T01:22:12.012Z,102518.55
2018-06-25T01:24:41.530Z,102514.99
2018-06-25T01:27:11.493Z,102522.93
2018-06-25T01:29:42.077Z,102520.67
2018-06-25T01:32:11.573Z,102516.59
2018-06-25T01:34:41.129Z,102519.19
2018-06-25T01:37:10.751Z,102516.70
2018-06-25T01:39:40.322Z,102517.53
2018-06-25T01:42:09.842Z,102517.38
2018-06-25T01:44:39.362Z,102516.78
2018-06-25T01:47:08.926Z,102515.98
2018-06-25T01:49:38.446Z,102515.27
2018-06-25T01:52:08.151Z,102516.14
2018-06-25T01:54:37.681Z,102509.19
2018-06-25T01:57:08.048Z,102513.55
2018-06-25T01:59:37.630Z,102508.61
2018-06-25T02:02:07.144Z,102508.59
2018-06-25T02:04:36.738Z,102508.03
2018-06-25T02:07:06.574Z,102514.52
2018-06-25T02:12:04.530Z,102512.78
2018-06-25T02:14:34.130Z,102509.46
2018-06-25T02:17:03.694Z,102506.59
2018-06-25T02:19:33.256Z,102506.70
2018-06-25T02:22:02.992Z,102510.44
2018-06-25T02:24:32.499Z,102511.77
2018-06-25T02:27:02.568Z,102516.66
2018-06-25T02:29:32.103Z,102509.39
2018-06-25T02:32:01.628Z,102511.05
2018-06-25T02:34:31.328Z,102513.00
2018-06-25T02:37:00.835Z,102519.95
2018-06-25T02:39:30.328Z,102519.80
2018-06-25T02:41:59.862Z,102516.52
2018-06-25T02:44:29.345Z,102519.95
2018-06-25T02:46:58.892Z,102515.98
2018-06-25T02:49:28.406Z,102514.20
2018-06-25T02:51:58.027Z,102516.81
2018-06-25T02:54:27.646Z,102510.70
2018-06-25T02:57:03.373Z,102506.17
2018-06-25T02:59:32.928Z,102507.16
2018-06-25T03:02:02.524Z,102506.93
2018-06-25T03:04:32.170Z,102510.89
2018-06-25T03:07:01.920Z,102514.63
2018-06-25T03:09:31.488Z,102518.25
2018-06-25T03:12:01.065Z,102514.70
2018-06-25T03:14:30.665Z,102510.97
2018-06-25T03:17:00.193Z,102512.96
2018-06-25T03:19:29.823Z,102513.11
2018-06-25T03:21:59.361Z,102509.19
2018-06-25T03:24:28.927Z,102511.60
2018-06-25T03:26:58.432Z,102516.02
2018-06-25T03:29:27.946Z,102514.92
2018-06-25T03:31:57.439Z,102530.98
2018-06-25T03:34:27.111Z,102531.70
2018-06-25T03:36:57.247Z,102535.73
2018-06-25T03:39:26.927Z,102531.47
2018-06-25T03:41:56.646Z,102533.38
2018-06-25T03:44:26.180Z,102532.48
2018-06-25T03:46:55.822Z,102541.53
2018-06-25T03:49:25.330Z,102541.53
2018-06-25T03:51:54.978Z,102542.64
2018-06-25T03:54:24.530Z,102542.14
2018-06-25T03:56:53.990Z,102549.47
2018-06-25T03:59:24.254Z,102551.94
2018-06-25T04:01:54.392Z,102551.55
2018-06-25T04:04:23.909Z,102552.75
2018-06-25T04:06:53.439Z,102555.33
2018-06-25T04:09:23.027Z,102551.39
2018-06-25T04:11:52.609Z,102557.78
2018-06-25T04:14:22.102Z,102559.57
2018-06-25T04:16:51.651Z,102557.93
2018-06-25T04:19:21.243Z,102561.64
2018-06-25T04:21:50.721Z,102557.76
2018-06-25T04:24:20.213Z,102560.41
2018-06-25T04:26:49.717Z,102565.72
2018-06-25T04:29:19.209Z,102565.97
2018-06-25T04:31:48.891Z,102571.29
2018-06-25T04:34:18.339Z,102563.24
2018-06-25T04:36:47.805Z,102565.34
2018-06-25T04:39:17.309Z,102558.52
2018-06-25T04:41:46.869Z,102564.84
2018-06-25T04:44:16.387Z,102562.63
2018-06-25T04:46:45.861Z,102558.84
2018-06-25T04:49:15.385Z,102570.44
2018-06-25T04:51:44.923Z,102567.36
2018-06-25T04:54:14.173Z,102572.81
2018-06-25T04:56:43.818Z,102581.41
2018-06-25T04:59:13.321Z,102578.86
2018-06-25T05:01:42.987Z,102586.30
2018-06-25T05:04:12.463Z,102585.63
2018-06-25T05:06:42.010Z,102593.28
2018-06-25T05:09:11.823Z,102598.66
2018-06-25T05:11:41.729Z,102601.45
2018-06-25T05:14:11.235Z,102595.42
2018-06-25T05:16:40.771Z,102604.78
2018-06-25T05:19:10.241Z,102604.84
2018-06-25T05:21:39.753Z,102603.92
2018-06-25T05:24:09.211Z,102603.63
2018-06-25T05:26:38.741Z,102605.21
2018-06-25T05:29:08.284Z,102596.92
2018-06-25T05:31:37.838Z,102603.78
2018-06-25T05:34:07.341Z,102599.14
2018-06-25T05:36:36.917Z,102604.96
2018-06-25T05:39:10.333Z,102601.12
2018-06-25T05:41:40.244Z,102605.77
2018-06-25T05:44:09.725Z,102605.73
2018-06-25T05:46:38.958Z,102611.52
2018-06-25T05:49:08.727Z,102604.78
2018-06-25T05:51:39.193Z,102607.49
2018-06-25T05:54:08.739Z,102610.67
2018-06-25T05:56:38.239Z,102606.69
2018-06-25T05:59:07.763Z,102606.95
2018-06-25T06:01:37.383Z,102600.04
2018-06-25T06:04:07.014Z,102598.22
2018-06-25T06:06:36.505Z,102609.22
2018-06-25T06:09:08.742Z,102615.95
2018-06-25T06:11:38.398Z,102617.95
2018-06-25T06:14:08.008Z,102616.97
2018-06-25T06:16:37.481Z,102617.25
2018-06-25T06:19:07.106Z,102623.09
2018-06-25T06:21:36.674Z,102612.86
2018-06-25T06:24:06.231Z,102610.89
2018-06-25T06:26:35.695Z,102618.95
2018-06-25T06:29:05.261Z,102618.89
2018-06-25T06:31:35.040Z,102616.41
2018-06-25T06:34:04.605Z,102622.16
2018-06-25T06:36:34.151Z,102610.53
2018-06-25T06:39:04.014Z,102612.80
2018-06-25T06:41:33.557Z,102606.91
2018-06-25T06:44:03.046Z,102617.09
2018-06-25T06:46:32.523Z,102616.61
2018-06-25T06:49:02.207Z,102615.55
2018-06-25T06:51:32.187Z,102618.83
2018-06-25T06:54:01.981Z,102623.14
2018-06-25T06:56:31.509Z,102633.96
2018-06-25T06:59:01.016Z,102631.59
2018-06-25T07:01:30.969Z,102638.67
2018-06-25T07:04:00.482Z,102637.11
2018-06-25T07:06:30.055Z,102636.07
2018-06-25T07:08:59.609Z,102630.34
2018-06-25T07:11:29.151Z,102628.73
2018-06-25T07:13:58.638Z,102631.30
2018-06-25T07:16:28.124Z,102631.66
2018-06-25T07:18:57.739Z,102629.50
2018-06-25T07:21:27.260Z,102633.11
2018-06-25T07:23:56.840Z,102630.66
2018-06-25T07:26:26.789Z,102636.41
2018-06-25T07:28:57.117Z,102631.19
2018-06-25T07:31:26.669Z,102630.91
2018-06-25T07:33:56.233Z,102626.52
2018-06-25T07:36:25.732Z,102633.30
2018-06-25T07:38:55.260Z,102637.91
2018-06-25T07:41:24.769Z,102635.09
2018-06-25T07:43:54.762Z,102630.95
2018-06-25T07:46:24.300Z,102632.00
2018-06-25T07:48:54.096Z,102632.94
2018-06-25T07:51:23.629Z,102638.52
2018-06-25T07:53:53.182Z,102643.26
2018-06-25T07:56:22.753Z,102646.48
2018-06-25T07:58:52.261Z,102649.41
2018-06-25T08:01:21.905Z,102646.41
2018-06-25T08:03:51.537Z,102645.05
2018-06-25T08:06:21.070Z,102652.70
2018-06-25T08:08:50.569Z,102658.39
2018-06-25T08:11:20.647Z,102656.97
2018-06-25T08:13:50.163Z,102654.55
2018-06-25T08:16:19.827Z,102651.06
2018-06-25T08:18:49.367Z,102650.93
2018-06-25T08:21:18.902Z,102647.75
2018-06-25T08:23:48.938Z,102653.60
2018-06-25T08:26:18.450Z,102667.02
2018-06-25T08:28:47.993Z,102663.01
2018-06-25T08:31:17.600Z,102656.36
2018-06-25T08:33:47.993Z,102662.98
2018-06-25T08:36:17.611Z,102669.55
2018-06-25T08:38:47.159Z,102671.86
2018-06-25T08:41:17.422Z,102676.69
2018-06-25T08:43:47.213Z,102676.63
2018-06-25T08:46:17.479Z,102679.10
2018-06-25T08:48:47.833Z,102677.37
2018-06-25T08:51:18.108Z,102677.41
2018-06-25T08:53:47.743Z,102682.61
2018-06-25T08:56:17.425Z,102681.58
2018-06-25T08:58:46.942Z,102679.61
2018-06-25T09:01:16.552Z,102688.50
2018-06-25T09:03:45.803Z,102682.47
2018-06-25T09:06:15.287Z,102684.27
2018-06-25T09:08:44.793Z,102684.56
2018-06-25T09:11:14.239Z,102687.67
2018-06-25T09:13:43.843Z,102687.66
2018-06-25T09:16:13.313Z,102697.48
2018-06-25T09:18:42.825Z,102692.17
2018-06-25T09:21:12.331Z,102700.43
2018-06-25T09:23:41.954Z,102694.84
2018-06-25T09:26:11.502Z,102687.04
2018-06-25T09:28:40.995Z,102689.46
2018-06-25T09:31:10.495Z,102697.43
2018-06-25T09:33:39.996Z,102696.98
2018-06-25T09:36:09.246Z,102697.14
2018-06-25T09:38:38.907Z,102695.50
2018-06-25T09:41:08.485Z,102696.82
2018-06-25T09:43:37.998Z,102706.44
2018-06-25T09:46:07.845Z,102695.19
2018-06-25T09:48:37.396Z,102698.14
2018-06-25T09:51:06.908Z,102702.33
2018-06-25T09:53:36.601Z,102701.95
2018-06-25T09:56:06.787Z,102703.81
2018-06-25T09:58:37.106Z,102706.94
2018-06-25T10:01:09.963Z,102705.67
2018-06-25T10:03:39.806Z,102699.44
2018-06-25T10:06:09.338Z,102699.27
2018-06-25T10:08:39.190Z,102696.78
2018-06-25T10:11:08.811Z,102699.26
2018-06-25T10:13:38.377Z,102695.63
2018-06-25T10:16:08.014Z,102690.52
2018-06-25T10:18:37.549Z,102686.71
2018-06-25T10:21:07.171Z,102691.52
2018-06-25T10:23:36.373Z,102690.61
2018-06-25T10:26:05.890Z,102695.59
2018-06-25T10:28:35.445Z,102692.11
2018-06-25T10:31:04.960Z,102692.00
2018-06-25T10:33:34.473Z,102685.98
2018-06-25T10:36:04.431Z,102688.16
2018-06-25T10:38:35.105Z,102676.16
2018-06-25T10:41:04.634Z,102690.20
2018-06-25T10:43:34.148Z,102689.92
2018-06-25T10:46:03.636Z,102682.27
2018-06-25T10:48:34.091Z,102678.48
2018-06-25T10:51:04.504Z,102682.62
2018-06-25T10:53:34.099Z,102690.76
2018-06-25T10:56:04.586Z,102685.91
2018-06-25T10:58:33.779Z,102687.28
2018-06-25T11:01:03.532Z,102677.69
2018-06-25T11:03:33.089Z,102676.69
2018-06-25T11:06:02.562Z,102677.19
2018-06-25T11:08:32.039Z,102676.13
2018-06-25T11:11:01.570Z,102676.81
2018-06-25T11:13:31.119Z,102673.90
2018-06-25T11:16:00.590Z,102666.97
2018-06-25T11:18:30.108Z,102675.48
2018-06-25T11:20:59.726Z,102678.00
2018-06-25T11:23:30.030Z,102667.88
2018-06-25T11:25:59.536Z,102671.30
2018-06-25T11:28:29.048Z,102677.84
2018-06-25T11:30:58.474Z,102666.84
2018-06-25T11:33:27.901Z,102650.37
2018-06-25T11:35:57.536Z,102668.09
2018-06-25T11:38:26.722Z,102659.16
2018-06-25T11:40:56.239Z,102659.34
2018-06-25T11:43:25.866Z,102666.80
2018-06-25T11:45:55.540Z,102664.13
2018-06-25T11:48:25.057Z,102660.48
2018-06-25T11:50:54.579Z,102657.37
2018-06-25T11:53:24.094Z,102654.63
2018-06-25T11:55:53.586Z,102652.59
2018-06-25T11:58:23.152Z,102658.38
2018-06-25T12:00:53.221Z,102667.19
2018-06-25T12:03:22.761Z,102664.98
2018-06-25T12:05:52.058Z,102668.82
2018-06-25T12:08:21.592Z,102666.06
2018-06-25T12:10:51.065Z,102673.83
2018-06-25T12:13:20.572Z,102657.59
2018-06-25T12:15:50.006Z,102660.55
2018-06-25T12:18:19.619Z,102663.81
2018-06-25T12:20:49.157Z,102666.49
2018-06-25T12:23:19.373Z,102668.52
2018-06-25T12:25:48.854Z,102663.06
2018-06-25T12:28:18.302Z,102660.03
2018-06-25T12:30:47.743Z,102656.02
2018-06-25T12:33:17.269Z,102655.48
2018-06-25T12:35:46.736Z,102656.45
2018-06-25T12:38:16.226Z,102653.75
2018-06-25T12:40:45.683Z,102654.91
2018-06-25T12:43:15.377Z,102658.80
2018-06-25T12:45:44.810Z,102661.05
2018-06-25T12:48:14.327Z,102660.33
2018-06-25T12:50:43.546Z,102649.55
2018-06-25T12:53:13.261Z,102656.08
2018-06-25T12:55:42.869Z,102662.86
2018-06-25T12:58:12.318Z,102655.32
2018-06-25T13:00:41.780Z,102650.27
2018-06-25T13:03:11.441Z,102650.08
2018-06-25T13:05:40.966Z,102659.44
2018-06-25T13:08:10.558Z,102653.80
2018-06-25T13:10:41.197Z,102647.58
2018-06-25T13:13:10.672Z,102657.23
2018-06-25T13:15:40.242Z,102654.12
2018-06-25T13:18:09.808Z,102658.72
2018-06-25T13:20:39.757Z,102661.66
2018-06-25T13:23:10.571Z,102675.02
2018-06-25T13:25:40.082Z,102667.77
2018-06-25T13:28:09.566Z,102668.39
2018-06-25T13:30:39.589Z,102667.58
2018-06-25T13:33:10.722Z,102660.64
2018-06-25T13:35:43.547Z,102671.65
2018-06-25T13:38:18.072Z,102672.83
2018-06-25T13:40:53.445Z,102673.52
2018-06-25T13:43:25.871Z,102672.11
2018-06-25T13:45:58.615Z,102668.61
2018-06-25T13:48:32.053Z,102666.00
2018-06-25T13:51:02.198Z,102668.02
2018-06-25T13:53:34.034Z,102659.70
2018-06-25T13:56:07.611Z,102662.05
2018-06-25T13:58:42.661Z,102664.13
2018-06-25T14:01:13.436Z,102658.21
2018-06-25T14:03:47.934Z,102661.97
2018-06-25T14:06:20.164Z,102659.70
2018-06-25T14:08:52.189Z,102656.09
2018-06-25T14:11:23.716Z,102649.83
2018-06-25T14:13:53.249Z,102654.98
2018-06-25T14:16:22.904Z,102654.16
2018-06-25T14:18:52.440Z,102656.83
2018-06-25T14:21:22.026Z,102661.52
2018-06-25T14:23:56.842Z,102670.52
2018-06-25T14:26:30.573Z,102666.97
2018-06-25T14:29:00.101Z,102670.42
2018-06-25T14:31:29.819Z,102663.67
2018-06-25T14:34:05.370Z,102666.03
2018-06-25T14:36:35.986Z,102667.29
2018-06-25T14:39:10.054Z,102666.51
2018-06-25T14:41:39.740Z,102665.59
2018-06-25T14:44:09.424Z,102665.00
2018-06-25T14:46:39.277Z,102662.03
2018-06-25T14:49:09.471Z,102663.97
2018-06-25T14:51:39.170Z,102658.00
2018-06-25T14:54:09.176Z,102653.48
2018-06-25T14:56:39.122Z,102656.58
2018-06-25T14:59:08.644Z,102651.62
2018-06-25T15:01:38.337Z,102648.31
2018-06-25T15:04:07.943Z,102651.28
2018-06-25T15:06:37.497Z,102652.42
2018-06-25T15:09:10.708Z,102649.48
2018-06-25T15:11:40.255Z,102647.03
2018-06-25T15:14:10.836Z,102643.45
2018-06-25T15:16:40.834Z,102649.05
2018-06-25T15:19:10.494Z,102655.23
2018-06-25T15:21:40.104Z,102656.45
2018-06-25T15:24:13.966Z,102654.88
2018-06-25T15:26:47.535Z,102658.59
2018-06-25T15:29:17.188Z,102655.22
2018-06-25T15:31:47.254Z,102659.30
2018-06-25T15:34:17.032Z,102667.56
2018-06-25T15:36:58.168Z,102668.14
2018-06-25T15:39:27.913Z,102661.95
2018-06-25T15:41:57.570Z,102663.13
2018-06-25T15:44:27.858Z,102660.58
2018-06-25T15:46:58.501Z,102665.97
2018-06-25T15:49:28.651Z,102663.91
2018-06-25T15:51:59.383Z,102661.92
2018-06-25T15:54:28.924Z,102666.70
2018-06-25T15:57:03.508Z,102658.52
2018-06-25T15:59:33.300Z,102657.80
2018-06-25T16:02:05.607Z,102660.14
2018-06-25T16:04:35.527Z,102652.74
2018-06-25T16:07:05.928Z,102653.83
2018-06-25T16:09:35.546Z,102650.46
2018-06-25T16:12:05.358Z,102643.30
2018-06-25T16:14:36.016Z,102637.56
2018-06-25T16:17:06.029Z,102636.67
2018-06-25T16:19:40.521Z,102630.54
2018-06-25T16:22:10.384Z,102630.91
2018-06-25T16:24:40.011Z,102630.66
2018-06-25T16:27:13.153Z,102641.08
2018-06-25T16:29:43.698Z,102636.73
2018-06-25T16:32:14.857Z,102628.38
2018-06-25T16:34:44.908Z,102630.37
2018-06-25T16:37:14.486Z,102630.37
2018-06-25T16:39:44.280Z,102628.59
2018-06-25T16:42:13.754Z,102619.52
2018-06-25T16:44:43.444Z,102628.66
2018-06-25T16:47:13.174Z,102629.30
2018-06-25T16:49:46.318Z,102634.38
2018-06-25T16:52:16.373Z,102631.94
2018-06-25T16:54:45.940Z,102635.01
2018-06-25T16:57:15.440Z,102636.31
2018-06-25T16:59:46.170Z,102637.97
2018-06-25T17:02:16.319Z,102639.87
2018-06-25T17:04:46.162Z,102644.77
2018-06-25T17:07:15.844Z,102652.50
2018-06-25T17:09:45.659Z,102656.20
2018-06-25T17:12:15.246Z,102645.31
2018-06-25T17:14:45.087Z,102656.19
2018-06-25T17:17:14.970Z,102651.90
2018-06-25T17:19:44.564Z,102661.67
2018-06-25T17:22:14.405Z,102660.27
2018-06-25T17:24:43.989Z,102657.33
2018-06-25T17:27:13.493Z,102660.52
2018-06-25T17:29:43.428Z,102658.95
2018-06-25T17:32:12.874Z,102657.08
2018-06-25T17:34:44.027Z,102654.86
2018-06-25T17:37:15.525Z,102660.91
2018-06-25T17:39:45.526Z,102664.84
2018-06-25T17:42:15.130Z,102669.64
2018-06-25T17:44:44.757Z,102667.64
2018-06-25T17:47:14.259Z,102658.69
2018-06-25T17:49:43.963Z,102664.62
2018-06-25T17:52:13.434Z,102662.83
2018-06-25T17:54:43.051Z,102655.54
2018-06-25T17:57:12.600Z,102663.13
2018-06-25T17:59:42.103Z,102658.44
2018-06-25T18:02:11.807Z,102665.90
2018-06-25T18:04:41.309Z,102662.38
2018-06-25T18:07:12.393Z,102661.94
2018-06-25T18:09:41.905Z,102673.72
2018-06-25T18:12:11.766Z,102661.04
2018-06-25T18:14:41.328Z,102671.11
2018-06-25T18:17:10.763Z,102667.63
2018-06-25T18:19:44.343Z,102664.77
2018-06-25T18:22:18.776Z,102672.30
2018-06-25T18:24:48.291Z,102679.25
2018-06-25T18:27:18.075Z,102673.80
2018-06-25T18:29:48.639Z,102675.20
2018-06-25T18:32:19.032Z,102674.42
2018-06-25T18:34:48.539Z,102685.19
2018-06-25T18:37:18.052Z,102679.70
2018-06-25T18:39:47.576Z,102677.92
2018-06-25T18:42:17.099Z,102673.84
2018-06-25T18:44:46.583Z,102677.80
2018-06-25T18:47:16.079Z,102675.35
2018-06-25T18:49:45.565Z,102679.62
2018-06-25T18:52:15.143Z,102676.08
2018-06-25T18:54:44.622Z,102670.77
2018-06-25T18:57:14.288Z,102672.59
2018-06-25T18:59:43.761Z,102663.56
2018-06-25T19:02:13.268Z,102663.34
2018-06-25T19:04:42.831Z,102674.75
2018-06-25T19:07:12.368Z,102680.00
2018-06-25T19:09:42.186Z,102672.06
2018-06-25T19:12:11.764Z,102684.32
2018-06-25T19:14:41.341Z,102691.41
2018-06-25T19:17:10.926Z,102685.93
2018-06-25T19:19:40.491Z,102685.06
2018-06-25T19:22:10.482Z,102690.98
2018-06-25T19:24:40.854Z,102694.09
2018-06-25T19:27:10.488Z,102693.01
2018-06-25T19:29:40.194Z,102686.84
2018-06-25T19:32:09.691Z,102689.77
2018-06-25T19:34:39.165Z,102692.52
2018-06-25T19:37:13.290Z,102694.39
2018-06-25T19:39:44.022Z,102703.08
2018-06-25T19:42:13.616Z,102709.37
2018-06-25T19:44:43.220Z,102707.69
2018-06-25T19:47:13.472Z,102712.03
2018-06-25T19:49:42.991Z,102708.34
2018-06-25T19:52:12.505Z,102714.33
2018-06-25T19:54:42.034Z,102716.69
2018-06-25T19:57:11.549Z,102719.31
2018-06-25T19:59:41.064Z,102725.04
2018-06-25T20:02:11.051Z,102731.06
2018-06-25T20:04:40.794Z,102725.59
2018-06-25T20:07:10.825Z,102718.76
2018-06-25T20:09:41.274Z,102717.52
2018-06-25T20:12:11.598Z,102721.23
2018-06-25T20:14:41.520Z,102730.77
2018-06-25T20:17:11.013Z,102726.64
2018-06-25T20:19:40.633Z,102735.30
2018-06-25T20:22:11.751Z,102745.88
2018-06-25T20:24:41.392Z,102752.86
2018-06-25T20:27:14.419Z,102757.45
2018-06-25T20:29:46.425Z,102754.05
2018-06-25T20:32:16.055Z,102752.23
2018-06-25T20:34:45.691Z,102749.57
2018-06-25T20:37:15.465Z,102747.81
2018-06-25T20:39:45.264Z,102748.02
2018-06-25T20:42:15.489Z,102746.23
2018-06-25T20:44:49.798Z,102752.90
2018-06-25T20:47:20.098Z,102758.08
2018-06-25T20:49:50.387Z,102765.08
2018-06-25T20:52:20.171Z,102763.27
2018-06-25T20:54:50.767Z,102766.09
2018-06-25T20:57:31.037Z,102765.91
2018-06-25T21:00:00.800Z,102758.14
2018-06-25T21:02:30.528Z,102759.09
2018-06-25T21:05:00.381Z,102755.77
2018-06-25T21:07:32.338Z,102758.59
2018-06-25T21:10:02.027Z,102765.64
2018-06-25T21:12:31.645Z,102759.86
2018-06-25T21:15:01.253Z,102764.14
2018-06-25T21:17:31.194Z,102757.98
2018-06-25T21:20:00.812Z,102752.79
2018-06-25T21:22:30.407Z,102757.92
2018-06-25T21:25:00.018Z,102760.12
2018-06-25T21:27:29.663Z,102759.74
2018-06-25T21:30:00.369Z,102758.08
2018-06-25T21:32:30.105Z,102759.33
2018-06-25T21:34:59.721Z,102754.78
2018-06-25T21:37:29.373Z,102761.67
2018-06-25T21:39:59.021Z,102759.48
2018-06-25T21:42:35.155Z,102762.44
2018-06-25T21:45:07.013Z,102759.73
2018-06-25T21:47:36.733Z,102749.48
2018-06-25T21:50:06.651Z,102759.17
2018-06-25T21:52:36.408Z,102756.70
2018-06-25T21:55:06.302Z,102756.13
2018-06-25T21:57:36.103Z,102755.42
2018-06-25T22:00:10.351Z,102763.85
2018-06-25T22:02:39.947Z,102758.02
2018-06-25T22:05:09.781Z,102755.44
2018-06-25T22:07:39.517Z,102762.73
2018-06-25T22:10:09.221Z,102759.40
2018-06-25T22:12:38.989Z,102762.52
2018-06-25T22:15:09.135Z,102763.53
2018-06-25T22:17:38.697Z,102760.42
2018-06-25T22:20:08.225Z,102766.46
2018-06-25T22:22:38.296Z,102763.34
2018-06-25T22:25:08.175Z,102761.58
2018-06-25T22:27:37.869Z,102761.67
2018-06-25T22:30:07.491Z,102760.83
2018-06-25T22:32:37.201Z,102765.30
2018-06-25T22:35:07.058Z,102768.02
2018-06-25T22:37:36.845Z,102755.52
2018-06-25T22:40:07.151Z,102756.05
2018-06-25T22:42:39.233Z,102767.39
2018-06-25T22:45:16.069Z,102759.80
2018-06-25T22:47:45.931Z,102764.06
2018-06-25T22:50:16.397Z,102757.31
2018-06-25T22:52:46.993Z,102758.45
2018-06-25T22:55:16.752Z,102756.59
2018-06-25T22:57:47.410Z,102760.11
2018-06-25T23:00:17.421Z,102757.72
2018-06-25T23:02:47.293Z,102752.42
2018-06-25T23:05:31.924Z,102755.95
2018-06-25T23:08:01.931Z,102756.87
2018-06-25T23:10:31.816Z,102755.09
2018-06-25T23:13:01.664Z,102743.77
2018-06-25T23:15:35.147Z,102756.66
2018-06-25T23:18:05.208Z,102752.40
2018-06-25T23:20:34.757Z,102744.80
2018-06-25T23:23:04.415Z,102739.83
2018-06-25T23:25:33.944Z,102744.17
2018-06-25T23:28:03.533Z,102741.05
2018-06-25T23:30:33.007Z,102744.90
2018-06-25T23:33:02.862Z,102737.41
2018-06-25T23:35:32.885Z,102743.56
2018-06-25T23:38:02.987Z,102741.89
2018-06-25T23:40:32.593Z,102740.65
2018-06-25T23:43:02.170Z,102747.20
2018-06-25T23:45:33.957Z,102736.48
2018-06-25T23:48:03.451Z,102739.70
2018-06-25T23:50:33.110Z,102741.78
2018-06-25T23:53:04.241Z,102734.80
2018-06-25T23:55:33.765Z,102744.27
2018-06-25T23:58:08.419Z,102741.77
